Time;durP1;ratioP1;P1;durP2;ratioP2;P2;SDS_P1;SDS_P2;PMS_P1;PMS_P2;Temp;Humidity;BMP_temperature;BMP_pressure;BME280_temperature;BME280_humidity;BME280_pressure;Samples;Min_cycle;Max_cycle;Signal;HPM_P1;HPM_P2
2023/12/01 00:00:05;;;;;;;49.75;18.92;;;3.80;99.90;;;;;;4992702;28;20112;-90
2023/12/01 00:02:31;;;;;;;42.97;19.35;;;3.70;99.90;;;;;;4992929;28;20080;-90
2023/12/01 00:04:58;;;;;;;47.05;21.05;;;3.70;99.90;;;;;;4991217;28;20525;-89
2023/12/01 00:07:24;;;;;;;45.05;18.73;;;3.70;99.90;;;;;;5000673;28;20056;-90
2023/12/01 00:09:52;;;;;;;46.42;20.55;;;3.60;99.90;;;;;;4992756;28;20058;-90
2023/12/01 00:12:17;;;;;;;;;;;3.70;99.90;;;;;;4995813;28;20041;-90
2023/12/01 00:14:46;;;;;;;47.67;18.42;;;3.60;99.90;;;;;;4990615;28;19910;-90
2023/12/01 00:17:11;;;;;;;41.17;17.45;;;3.70;99.90;;;;;;4990746;28;20068;-90
2023/12/01 00:19:44;;;;;;;42.60;18.33;;;3.70;99.90;;;;;;4991682;28;20062;-89
2023/12/01 00:22:10;;;;;;;51.30;19.15;;;3.70;99.90;;;;;;4977608;28;20034;-90
2023/12/01 00:24:37;;;;;;;45.40;19.73;;;3.80;99.90;;;;;;4976406;28;21076;-90
2023/12/01 00:27:04;;;;;;;47.53;19.52;;;3.80;99.90;;;;;;4986161;28;20039;-90
2023/12/01 00:29:34;;;;;;;48.50;20.10;;;3.70;99.90;;;;;;4990126;28;20069;-90
2023/12/01 00:32:00;;;;;;;44.13;19.52;;;3.70;99.90;;;;;;5006576;28;20037;-90
2023/12/01 00:34:25;;;;;;;48.88;20.27;;;3.80;99.90;;;;;;4993097;28;20582;-90
2023/12/01 00:37:22;;;;;;;50.28;20.50;;;3.80;99.90;;;;;;4974494;28;20034;-88
2023/12/01 00:39:48;;;;;;;47.15;19.45;;;3.80;99.90;;;;;;5002601;28;20649;-90
2023/12/01 00:42:13;;;;;;;46.47;19.77;;;3.80;99.90;;;;;;4975076;28;20062;-90
2023/12/01 00:44:39;;;;;;;49.60;20.15;;;3.80;99.90;;;;;;5008656;28;20065;-90
2023/12/01 00:47:05;;;;;;;55.35;20.60;;;3.80;99.90;;;;;;5008219;28;20104;-89
2023/12/01 00:49:31;;;;;;;47.85;20.90;;;3.70;99.90;;;;;;4990484;28;20026;-90
2023/12/01 00:51:57;;;;;;;56.00;22.52;;;3.80;99.90;;;;;;4991344;28;20556;-90
2023/12/01 00:54:25;;;;;;;53.05;20.98;;;3.80;99.90;;;;;;4992099;28;20112;-88
2023/12/01 00:56:51;;;;;;;52.38;21.55;;;3.60;99.90;;;;;;4990915;28;20034;-90
2023/12/01 00:59:18;;;;;;;50.35;20.33;;;3.80;99.90;;;;;;4989191;28;20037;-90
2023/12/01 01:01:44;;;;;;;54.20;20.60;;;3.80;99.90;;;;;;5007826;28;20169;-89
2023/12/01 01:04:10;;;;;;;49.42;20.92;;;3.70;99.90;;;;;;4991542;28;20112;-90
2023/12/01 01:06:36;;;;;;;52.60;21.08;;;3.70;99.90;;;;;;4993087;28;20613;-89
2023/12/01 01:09:03;;;;;;;54.50;22.25;;;3.80;99.90;;;;;;4992597;28;20114;-90
2023/12/01 01:11:28;;;;;;;49.40;20.33;;;3.80;99.90;;;;;;4990927;28;20109;-90
2023/12/01 01:13:55;;;;;;;50.42;21.10;;;3.60;99.90;;;;;;4991087;28;20114;-89
2023/12/01 01:16:23;;;;;;;49.00;20.35;;;3.60;99.90;;;;;;4995296;28;20026;-88
2023/12/01 01:18:49;;;;;;;49.55;20.15;;;3.60;99.90;;;;;;5008092;28;20033;-90
2023/12/01 01:21:16;;;;;;;51.58;21.27;;;3.70;99.90;;;;;;4990609;28;20026;-90
2023/12/01 01:23:42;;;;;;;48.13;21.13;;;3.60;99.90;;;;;;4989076;28;20026;-90
2023/12/01 01:26:08;;;;;;;48.28;20.05;;;3.70;99.90;;;;;;4984191;28;20038;-89
2023/12/01 01:28:33;;;;;;;48.40;19.73;;;3.90;99.90;;;;;;4994973;28;20038;-90
2023/12/01 01:30:59;;;;;;;52.45;20.85;;;3.90;99.90;;;;;;5009974;28;20686;-89
2023/12/01 01:33:25;;;;;;;54.63;21.50;;;4.10;99.90;;;;;;4978593;28;20034;-90
2023/12/01 01:35:55;;;;;;;47.58;20.70;;;4.10;99.90;;;;;;4990559;28;20030;-90
2023/12/01 01:38:23;;;;;;;52.28;21.50;;;4.00;99.90;;;;;;4991266;28;20034;-90
2023/12/01 01:40:48;;;;;;;;;;;4.00;99.90;;;;;;5006500;28;20034;-90
2023/12/01 01:43:34;;;;;;;46.25;19.70;;;3.80;99.90;;;;;;4990109;28;19956;-90
2023/12/01 01:46:10;;;;;;;50.15;19.23;;;3.90;99.90;;;;;;4991215;28;20294;-90
2023/12/01 01:48:37;;;;;;;57.28;22.20;;;3.60;99.90;;;;;;4989357;28;20165;-89
2023/12/01 01:51:06;;;;;;;48.05;20.67;;;3.40;99.90;;;;;;4973781;28;20390;-90
2023/12/01 01:53:41;;;;;;;47.22;20.17;;;3.20;99.90;;;;;;4990847;28;20549;-90
2023/12/01 01:56:08;;;;;;;52.05;20.90;;;3.50;99.90;;;;;;4968557;28;20066;-90
2023/12/01 01:58:33;;;;;;;49.17;19.77;;;3.80;99.90;;;;;;4989878;28;20031;-89
2023/12/01 02:00:59;;;;;;;52.30;20.60;;;3.90;99.90;;;;;;4989785;28;20030;-90
2023/12/01 02:03:25;;;;;;;55.38;21.13;;;4.00;99.90;;;;;;4990221;28;20045;-90
2023/12/01 02:05:53;;;;;;;51.90;19.90;;;4.10;99.90;;;;;;5005444;28;20405;-90
2023/12/01 02:08:27;;;;;;;49.60;20.13;;;4.10;99.90;;;;;;4992262;28;20122;-90
2023/12/01 02:10:57;;;;;;;56.05;21.77;;;4.10;99.90;;;;;;4973481;28;20507;-91
2023/12/01 02:13:27;;;;;;;52.83;20.45;;;4.00;99.90;;;;;;4992674;28;20568;-89
2023/12/01 02:15:53;;;;;;;56.92;22.23;;;3.80;99.90;;;;;;4973497;28;20104;-90
2023/12/01 02:18:29;;;;;;;56.75;22.05;;;3.70;99.90;;;;;;5009631;28;20079;-90
2023/12/01 02:20:56;;;;;;;59.40;23.27;;;3.70;99.90;;;;;;4993510;28;20702;-90
2023/12/01 02:23:22;;;;;;;54.17;21.85;;;3.70;99.90;;;;;;4988672;28;20038;-90
2023/12/01 02:25:49;;;;;;;58.92;22.52;;;3.70;99.90;;;;;;5005866;28;20038;-90
2023/12/01 02:28:15;;;;;;;57.65;21.98;;;3.70;99.90;;;;;;4989422;28;20044;-91
2023/12/01 02:30:43;;;;;;;55.70;21.42;;;3.70;99.90;;;;;;4989333;28;20045;-90
2023/12/01 02:33:16;;;;;;;56.15;22.08;;;3.70;99.90;;;;;;4990711;28;20107;-90
2023/12/01 02:35:46;;;;;;;62.17;22.70;;;3.70;99.90;;;;;;4995727;28;20030;-91
2023/12/01 02:38:13;;;;;;;62.08;24.10;;;3.70;99.90;;;;;;5006117;28;20026;-91
2023/12/01 02:40:49;;;;;;;63.30;22.17;;;3.70;99.90;;;;;;4989131;28;20046;-90
2023/12/01 02:43:16;;;;;;;57.65;22.35;;;3.60;99.90;;;;;;4987686;28;20034;-90
2023/12/01 02:45:42;;;;;;;64.03;21.63;;;3.80;99.90;;;;;;4984307;28;20500;-91
2023/12/01 02:48:11;;;;;;;63.83;23.58;;;3.80;99.90;;;;;;4984840;28;20294;-90
2023/12/01 02:50:37;;;;;;;54.55;21.02;;;3.70;99.90;;;;;;4988564;28;20131;-90
2023/12/01 02:53:04;;;;;;;63.72;23.05;;;3.60;99.90;;;;;;4989150;28;20050;-88
2023/12/01 02:55:30;;;;;;;56.53;20.98;;;3.40;99.90;;;;;;4984279;28;20546;-90
2023/12/01 02:57:58;;;;;;;57.47;22.27;;;3.50;99.90;;;;;;4988882;28;20034;-89
2023/12/01 03:00:24;;;;;;;53.88;20.92;;;3.50;99.90;;;;;;4987586;28;20031;-88
2023/12/01 03:02:50;;;;;;;56.63;21.20;;;3.70;99.90;;;;;;5005863;28;20045;-90
2023/12/01 03:05:17;;;;;;;55.38;20.80;;;3.60;99.90;;;;;;4990265;28;20133;-92
2023/12/01 03:07:42;;;;;;;56.45;22.77;;;3.50;99.90;;;;;;5006497;28;20478;-90
2023/12/01 03:10:08;;;;;;;57.42;22.60;;;3.40;99.90;;;;;;4978303;28;20045;-90
2023/12/01 03:12:34;;;;;;;61.45;23.98;;;3.40;99.90;;;;;;4990994;28;20117;-90
2023/12/01 03:15:00;;;;;;;57.95;22.08;;;3.40;99.90;;;;;;4993800;28;20147;-91
2023/12/01 03:17:26;;;;;;;58.60;22.88;;;3.40;99.90;;;;;;4990347;28;20118;-90
2023/12/01 03:19:54;;;;;;;56.05;20.20;;;3.40;99.90;;;;;;4993015;28;20082;-88
2023/12/01 03:22:20;;;;;;;60.17;21.20;;;3.40;99.90;;;;;;5009820;28;20037;-91
2023/12/01 03:24:47;;;;;;;57.58;20.70;;;3.20;99.90;;;;;;4993105;28;20133;-91
2023/12/01 03:27:14;;;;;;;51.65;19.95;;;3.30;99.90;;;;;;4994820;28;20036;-90
2023/12/01 03:29:40;;;;;;;52.47;19.75;;;3.40;99.90;;;;;;4992509;28;20042;-90
2023/12/01 03:32:06;;;;;;;57.30;20.90;;;3.30;99.90;;;;;;4991449;28;20034;-90
2023/12/01 03:34:33;;;;;;;42.70;17.40;;;3.30;99.90;;;;;;4974862;28;20125;-91
2023/12/01 03:37:02;;;;;;;47.53;19.95;;;3.40;99.90;;;;;;4992206;28;20585;-90
2023/12/01 03:39:27;;;;;;;45.92;18.33;;;3.40;99.90;;;;;;4979894;28;20033;-90
2023/12/01 03:41:53;;;;;;;48.05;19.02;;;3.20;99.90;;;;;;4993998;28;20113;-88
2023/12/01 03:44:21;;;;;;;51.85;19.88;;;3.20;99.90;;;;;;4998004;28;20084;-91
2023/12/01 03:46:47;;;;;;;46.53;19.13;;;3.20;99.90;;;;;;4957739;28;20044;-91
2023/12/01 03:49:13;;;;;;;51.40;19.92;;;3.20;99.90;;;;;;4996089;28;20057;-90
2023/12/01 03:51:39;;;;;;;46.28;19.85;;;3.30;99.90;;;;;;4993692;28;20480;-90
2023/12/01 03:54:07;;;;;;;51.80;20.15;;;3.00;99.90;;;;;;5009142;28;20125;-91
2023/12/01 03:56:36;;;;;;;43.95;17.25;;;3.10;99.90;;;;;;4992595;28;20058;-91
2023/12/01 03:59:03;;;;;;;46.75;18.38;;;3.20;99.90;;;;;;4994878;28;20019;-89
2023/12/01 04:01:29;;;;;;;49.53;19.55;;;3.30;99.90;;;;;;4992596;28;20025;-90
2023/12/01 04:03:57;;;;;;;42.00;17.35;;;3.40;99.90;;;;;;4992078;28;20027;-91
2023/12/01 04:06:25;;;;;;;49.92;19.33;;;3.40;99.90;;;;;;5008920;28;20050;-90
2023/12/01 04:08:53;;;;;;;49.50;19.27;;;3.50;99.90;;;;;;4982601;28;20037;-90
2023/12/01 04:11:19;;;;;;;50.10;19.67;;;3.50;99.90;;;;;;4993181;28;20295;-90
2023/12/01 04:13:45;;;;;;;51.22;19.10;;;3.40;99.90;;;;;;4992815;28;20038;-90
2023/12/01 04:16:11;;;;;;;46.00;19.15;;;3.30;99.90;;;;;;4990956;28;20118;-91
2023/12/01 04:18:36;;;;;;;40.40;17.70;;;3.40;99.90;;;;;;4991024;28;20083;-91
2023/12/01 04:21:08;;;;;;;47.60;17.58;;;3.20;99.90;;;;;;4972892;28;20064;-91
2023/12/01 04:23:34;;;;;;;48.95;18.63;;;3.40;99.90;;;;;;4991525;28;20023;-90
2023/12/01 04:26:00;;;;;;;43.85;17.77;;;3.40;99.90;;;;;;4992158;28;20037;-92
2023/12/01 04:28:26;;;;;;;40.67;16.60;;;3.30;99.90;;;;;;4991687;28;20030;-90
2023/12/01 04:30:52;;;;;;;40.13;17.02;;;3.20;99.90;;;;;;4992678;28;20378;-91
2023/12/01 04:33:18;;;;;;;42.35;17.05;;;2.90;99.90;;;;;;4991683;28;20651;-90
2023/12/01 04:35:43;;;;;;;42.80;16.33;;;2.90;99.90;;;;;;5008125;28;20112;-90
2023/12/01 04:38:09;;;;;;;40.03;15.93;;;3.10;99.90;;;;;;5009228;28;20197;-91
2023/12/01 04:40:36;;;;;;;34.92;16.02;;;3.10;99.90;;;;;;4991108;28;20080;-90
2023/12/01 04:43:04;;;;;;;41.03;16.50;;;3.10;99.90;;;;;;4973179;28;20030;-89
2023/12/01 04:45:32;;;;;;;38.83;15.50;;;3.00;99.90;;;;;;4989098;28;20034;-90
2023/12/01 04:47:58;;;;;;;;;;;2.70;99.90;;;;;;4988615;28;20118;-90
2023/12/01 04:50:29;;;;;;;40.58;15.55;;;2.60;99.90;;;;;;5009640;28;20048;-91
2023/12/01 04:52:56;;;;;;;37.63;16.80;;;2.70;99.90;;;;;;4990705;28;20079;-90
2023/12/01 04:55:27;;;;;;;42.63;16.90;;;2.60;99.90;;;;;;4993170;28;20026;-91
2023/12/01 04:57:56;;;;;;;40.83;16.70;;;2.60;99.90;;;;;;5004161;28;20283;-91
2023/12/01 05:00:26;;;;;;;45.83;17.45;;;2.70;99.90;;;;;;5004708;28;20121;-90
2023/12/01 05:02:52;;;;;;;45.75;17.75;;;2.70;99.90;;;;;;5009027;28;20038;-91
2023/12/01 05:05:22;;;;;;;41.30;17.75;;;2.60;99.90;;;;;;4991243;28;20022;-90
2023/12/01 05:07:52;;;;;;;46.38;17.27;;;2.70;99.90;;;;;;4992099;28;20027;-91
2023/12/01 05:10:20;;;;;;;42.70;16.58;;;2.80;99.90;;;;;;4990303;28;20030;-88
2023/12/01 05:12:49;;;;;;;;;;;2.90;99.90;;;;;;4989086;28;20031;-91
2023/12/01 05:15:20;;;;;;;40.20;16.23;;;3.10;99.90;;;;;;4994620;28;20261;-90
2023/12/01 05:17:53;;;;;;;43.38;17.30;;;3.10;99.90;;;;;;4989521;28;20037;-90
2023/12/01 05:20:19;;;;;;;43.15;18.08;;;3.10;99.90;;;;;;5004809;28;20030;-90
2023/12/01 05:22:52;;;;;;;46.83;18.27;;;3.00;99.90;;;;;;5007276;28;20038;-90
2023/12/01 05:25:21;;;;;;;48.33;18.52;;;3.10;99.90;;;;;;4993274;28;20026;-90
2023/12/01 05:27:49;;;;;;;49.28;19.25;;;3.10;99.90;;;;;;4984277;28;20430;-91
2023/12/01 05:30:19;;;;;;;42.30;16.98;;;2.90;99.90;;;;;;5005862;28;20038;-90
2023/12/01 05:32:46;;;;;;;36.85;16.58;;;3.00;99.90;;;;;;4973090;28;20125;-91
2023/12/01 05:35:16;;;;;;;41.97;17.23;;;2.80;99.90;;;;;;4983515;28;20037;-90
2023/12/01 05:37:47;;;;;;;48.28;18.02;;;2.80;99.90;;;;;;4970305;28;20469;-88
2023/12/01 05:40:22;;;;;;;42.70;18.42;;;2.90;99.90;;;;;;4987771;28;20037;-90
2023/12/01 05:42:54;;;;;;;41.50;17.10;;;2.90;99.90;;;;;;4992118;28;20022;-90
2023/12/01 05:45:27;;;;;;;45.15;19.42;;;2.90;99.90;;;;;;4990446;28;20035;-91
2023/12/01 05:47:56;;;;;;;44.90;18.25;;;3.00;99.90;;;;;;4987553;28;20149;-91
2023/12/01 05:50:30;;;;;;;41.72;17.40;;;3.10;99.90;;;;;;4987829;28;20030;-91
2023/12/01 05:53:03;;;;;;;45.47;18.40;;;3.00;99.90;;;;;;5001771;28;20031;-89
2023/12/01 05:55:35;;;;;;;47.08;16.92;;;3.00;99.90;;;;;;4983599;28;20046;-89
2023/12/01 05:58:04;;;;;;;48.03;18.17;;;2.90;99.90;;;;;;4989389;28;20030;-91
2023/12/01 06:00:32;;;;;;;42.58;16.38;;;2.90;99.90;;;;;;4989017;28;20041;-91
2023/12/01 06:03:03;;;;;;;45.25;18.15;;;2.90;99.90;;;;;;4993144;28;20061;-90
2023/12/01 06:05:29;;;;;;;45.35;17.90;;;2.90;99.90;;;;;;4988185;28;20034;-90
2023/12/01 06:07:57;;;;;;;34.95;15.73;;;2.90;99.90;;;;;;4995846;28;20524;-89
2023/12/01 06:10:23;;;;;;;37.80;15.15;;;3.00;99.90;;;;;;4983092;28;20101;-90
2023/12/01 06:12:50;;;;;;;35.72;14.65;;;3.00;99.90;;;;;;4986962;28;20041;-90
2023/12/01 06:15:19;;;;;;;37.55;15.80;;;2.90;99.90;;;;;;4988489;28;20034;-89
2023/12/01 06:17:49;;;;;;;37.05;15.00;;;2.80;99.90;;;;;;5002028;28;20050;-89
2023/12/01 06:20:17;;;;;;;46.38;17.45;;;2.70;99.90;;;;;;4987233;28;20030;-90
2023/12/01 06:22:56;;;;;;;;;;;2.60;99.90;;;;;;4970188;28;20525;-90
2023/12/01 06:25:27;;;;;;;36.17;14.98;;;2.50;99.90;;;;;;4986108;28;20301;-89
2023/12/01 06:27:56;;;;;;;45.72;16.73;;;2.60;99.90;;;;;;4989930;28;20046;-90
2023/12/01 06:30:24;;;;;;;39.55;15.93;;;2.50;99.90;;;;;;4975306;28;20034;-90
2023/12/01 06:32:50;;;;;;;36.97;15.13;;;2.40;99.90;;;;;;4994341;28;20486;-90
2023/12/01 06:35:22;;;;;;;35.97;14.27;;;2.40;99.90;;;;;;4991063;28;20033;-90
2023/12/01 06:37:50;;;;;;;37.13;15.40;;;2.40;99.90;;;;;;5011978;28;20027;-90
2023/12/01 06:40:18;;;;;;;44.08;16.98;;;2.30;99.90;;;;;;4989731;28;20030;-90
2023/12/01 06:42:48;;;;;;;43.67;17.45;;;2.40;99.90;;;;;;4990897;28;20039;-90
2023/12/01 06:45:16;;;;;;;39.85;15.80;;;2.50;99.90;;;;;;4988823;28;20038;-90
2023/12/01 06:47:46;;;;;;;40.90;16.60;;;2.40;99.90;;;;;;4972161;28;20084;-89
2023/12/01 06:50:16;;;;;;;39.72;14.75;;;2.50;99.90;;;;;;4985227;28;20045;-89
2023/12/01 06:52:46;;;;;;;34.30;13.52;;;2.60;99.90;;;;;;4986575;28;20486;-90
2023/12/01 06:55:12;;;;;;;33.78;14.38;;;2.50;99.90;;;;;;5002803;28;20030;-89
2023/12/01 06:57:40;;;;;;;28.27;11.93;;;2.40;99.90;;;;;;5000971;28;20540;-91
2023/12/01 07:00:21;;;;;;;26.70;11.48;;;2.80;99.90;;;;;;5004336;28;20070;-90
2023/12/01 07:02:49;;;;;;;29.15;12.38;;;3.00;99.90;;;;;;4988031;28;20129;-90
2023/12/01 07:05:19;;;;;;;31.67;12.80;;;2.80;99.90;;;;;;4988864;28;20124;-90
2023/12/01 07:07:48;;;;;;;29.45;12.18;;;2.70;99.90;;;;;;5004767;28;20034;-91
2023/12/01 07:10:15;;;;;;;32.95;13.93;;;2.60;99.90;;;;;;4988372;28;20041;-88
2023/12/01 07:12:40;;;;;;;25.13;11.52;;;2.60;99.90;;;;;;4986998;28;20034;-90
2023/12/01 07:15:11;;;;;;;29.38;11.35;;;2.60;99.90;;;;;;4986915;28;20045;-90
2023/12/01 07:17:38;;;;;;;23.38;9.68;;;2.40;99.90;;;;;;4985587;28;20034;-88
2023/12/01 07:20:13;;;;;;;23.42;9.32;;;2.40;99.90;;;;;;4985789;28;20035;-88
2023/12/01 07:22:39;;;;;;;23.05;9.77;;;2.40;99.90;;;;;;4985430;28;20041;-89
2023/12/01 07:25:10;;;;;;;22.25;9.85;;;2.40;99.90;;;;;;4982675;28;20022;-89
2023/12/01 07:27:38;;;;;;;24.20;10.10;;;2.40;99.90;;;;;;5001124;28;20038;-89
2023/12/01 07:30:05;;;;;;;25.55;10.40;;;2.20;99.90;;;;;;4984785;28;20030;-88
2023/12/01 07:32:30;;;;;;;26.38;10.57;;;2.40;99.90;;;;;;5003163;28;20034;-88
2023/12/01 07:34:56;;;;;;;28.52;12.57;;;2.50;99.90;;;;;;4969695;28;20034;-89
2023/12/01 07:37:24;;;;;;;27.80;11.20;;;2.50;99.90;;;;;;4987120;28;21064;-90
2023/12/01 07:39:49;;;;;;;25.40;11.23;;;2.40;99.90;;;;;;4985328;28;20033;-88
2023/12/01 07:42:16;;;;;;;27.23;11.80;;;2.80;99.90;;;;;;4987276;28;20038;-88
2023/12/01 07:44:42;;;;;;;27.45;11.32;;;2.50;99.90;;;;;;4983061;28;20034;-89
2023/12/01 07:47:11;;;;;;;25.17;11.52;;;2.50;99.90;;;;;;4984870;28;20034;-89
2023/12/01 07:49:37;;;;;;;27.33;10.90;;;2.40;99.90;;;;;;4984681;28;20057;-86
2023/12/01 07:52:06;;;;;;;26.90;11.38;;;2.40;99.90;;;;;;4983310;28;20026;-88
2023/12/01 07:54:35;;;;;;;25.77;10.85;;;2.50;99.90;;;;;;4984908;28;20026;-89
2023/12/01 07:57:01;;;;;;;24.52;11.27;;;2.50;99.90;;;;;;4995799;28;20031;-88
2023/12/01 07:59:27;;;;;;;30.92;12.43;;;2.50;99.90;;;;;;5000499;28;20068;-87
2023/12/01 08:01:53;;;;;;;25.65;10.90;;;2.50;99.90;;;;;;4968625;28;20027;-89
2023/12/01 08:04:19;;;;;;;27.02;11.20;;;2.70;99.90;;;;;;4989644;28;20037;-90
2023/12/01 08:06:44;;;;;;;31.10;12.32;;;2.60;99.90;;;;;;5003424;28;20064;-89
2023/12/01 08:09:16;;;;;;;26.58;11.50;;;2.60;99.90;;;;;;4987639;28;20038;-87
2023/12/01 08:11:43;;;;;;;27.98;11.57;;;2.50;99.90;;;;;;4987832;28;20026;-89
2023/12/01 08:14:11;;;;;;;28.15;12.20;;;2.50;99.90;;;;;;4987856;28;20031;-88
2023/12/01 08:16:38;;;;;;;29.58;11.73;;;2.70;99.90;;;;;;4989706;28;20121;-88
2023/12/01 08:19:09;;;;;;;25.85;10.93;;;2.70;99.90;;;;;;5003262;28;20029;-89
2023/12/01 08:21:35;;;;;;;24.23;10.55;;;2.60;99.90;;;;;;5003494;28;20037;-89
2023/12/01 08:24:04;;;;;;;23.02;9.60;;;2.60;99.90;;;;;;5003968;28;20027;-88
2023/12/01 08:26:30;;;;;;;20.83;9.82;;;2.60;99.90;;;;;;4989512;28;20116;-89
2023/12/01 08:28:55;;;;;;;22.85;8.80;;;2.60;99.90;;;;;;4987396;28;20428;-88
2023/12/01 08:31:21;;;;;;;17.83;7.63;;;2.50;99.90;;;;;;4970569;28;20026;-88
2023/12/01 08:33:47;;;;;;;15.80;7.65;;;2.40;99.90;;;;;;5001928;28;20042;-89
2023/12/01 08:36:15;;;;;;;17.88;7.68;;;2.30;99.90;;;;;;4992270;28;20838;-89
2023/12/01 08:38:44;;;;;;;23.00;8.50;;;2.30;99.90;;;;;;4975568;28;20478;-90
2023/12/01 08:41:10;;;;;;;20.92;8.30;;;2.30;99.90;;;;;;4975687;28;20038;-87
2023/12/01 08:43:35;;;;;;;18.67;8.35;;;2.30;99.90;;;;;;5008796;28;20552;-90
2023/12/01 08:46:02;;;;;;;18.17;8.00;;;2.30;99.90;;;;;;4993842;28;20034;-89
2023/12/01 08:48:28;;;;;;;18.63;7.60;;;2.30;99.90;;;;;;4987418;28;20026;-89
2023/12/01 08:50:57;;;;;;;15.73;7.55;;;2.50;99.90;;;;;;4991973;28;20426;-89
2023/12/01 08:53:22;;;;;;;19.85;9.10;;;2.60;99.90;;;;;;4990940;28;20699;-89
2023/12/01 08:55:51;;;;;;;21.23;9.13;;;2.60;99.90;;;;;;5005214;28;20033;-89
2023/12/01 08:58:22;;;;;;;21.45;8.95;;;2.50;99.90;;;;;;4991052;28;20533;-88
2023/12/01 09:00:47;;;;;;;25.23;9.60;;;2.50;99.90;;;;;;4969086;28;20034;-89
2023/12/01 09:03:13;;;;;;;18.90;9.07;;;2.50;99.90;;;;;;4990588;28;20033;-90
2023/12/01 09:05:39;;;;;;;18.88;8.05;;;2.60;99.90;;;;;;4995925;28;20026;-91
2023/12/01 09:08:05;;;;;;;22.08;9.32;;;2.70;99.90;;;;;;5009759;28;20026;-90
2023/12/01 09:10:34;;;;;;;21.33;9.00;;;2.60;99.90;;;;;;4991915;28;20490;-90
2023/12/01 09:12:59;;;;;;;21.73;8.90;;;2.60;99.90;;;;;;4975780;28;20038;-90
2023/12/01 09:15:25;;;;;;;16.50;7.95;;;2.70;99.90;;;;;;4991454;28;20031;-89
2023/12/01 09:17:51;;;;;;;17.42;8.05;;;2.60;99.90;;;;;;4985219;28;20030;-89
2023/12/01 09:20:18;;;;;;;18.83;7.82;;;2.50;99.90;;;;;;4987479;28;20030;-89
2023/12/01 09:22:43;;;;;;;17.13;7.50;;;2.40;99.90;;;;;;5012041;28;20042;-88
2023/12/01 09:25:09;;;;;;;18.00;8.30;;;2.50;99.90;;;;;;5005306;28;20530;-90
2023/12/01 09:27:35;;;;;;;20.95;8.27;;;2.60;99.90;;;;;;4995163;28;20058;-90
2023/12/01 09:30:01;;;;;;;21.77;8.82;;;2.60;99.90;;;;;;4991696;28;20038;-88
2023/12/01 09:32:27;;;;;;;15.00;7.78;;;2.70;99.90;;;;;;4956441;28;20133;-88
2023/12/01 09:34:53;;;;;;;22.85;8.18;;;2.70;99.90;;;;;;4989844;28;20034;-89
2023/12/01 09:37:18;;;;;;;14.10;6.13;;;2.70;99.90;;;;;;4987535;28;20022;-91
2023/12/01 09:39:49;;;;;;;16.20;7.28;;;2.60;99.90;;;;;;4988703;28;20598;-89
2023/12/01 09:42:22;;;;;;;15.30;7.00;;;2.60;99.90;;;;;;5001371;28;20031;-89
2023/12/01 09:44:52;;;;;;;17.17;7.82;;;2.60;99.90;;;;;;4984102;28;20540;-91
2023/12/01 09:47:23;;;;;;;15.05;7.07;;;2.60;99.90;;;;;;4977145;28;20058;-90
2023/12/01 09:49:50;;;;;;;17.65;6.85;;;2.70;99.90;;;;;;4972187;28;20109;-88
2023/12/01 09:52:16;;;;;;;14.93;7.32;;;2.60;99.90;;;;;;4989214;28;20015;-89
2023/12/01 09:54:41;;;;;;;14.63;7.20;;;2.70;99.90;;;;;;4989478;28;20520;-88
2023/12/01 09:57:07;;;;;;;13.77;6.65;;;2.70;99.90;;;;;;4993046;28;20942;-89
2023/12/01 09:59:36;;;;;;;17.83;7.93;;;2.70;99.90;;;;;;4974568;28;20062;-88
2023/12/01 10:02:04;;;;;;;13.85;6.32;;;2.60;99.90;;;;;;4989353;28;20593;-89
2023/12/01 10:04:34;;;;;;;14.73;6.93;;;2.60;99.90;;;;;;4989820;28;20508;-89
2023/12/01 10:07:03;;;;;;;15.77;7.40;;;2.60;99.90;;;;;;4953643;28;20529;-89
2023/12/01 10:09:35;;;;;;;15.25;6.95;;;2.70;99.90;;;;;;4984472;28;20058;-89
2023/12/01 10:12:08;;;;;;;14.52;7.03;;;2.70;99.90;;;;;;4991361;28;20077;-89
2023/12/01 10:14:41;;;;;;;14.55;7.35;;;2.80;99.90;;;;;;4988704;28;20073;-89
2023/12/01 10:17:08;;;;;;;15.65;7.43;;;2.70;99.90;;;;;;5006296;28;20092;-89
2023/12/01 10:19:44;;;;;;;15.82;7.25;;;2.70;99.90;;;;;;4989728;28;20061;-88
2023/12/01 10:22:12;;;;;;;17.38;7.65;;;2.70;99.90;;;;;;4989727;28;20118;-89
2023/12/01 10:24:37;;;;;;;15.93;6.93;;;2.70;99.90;;;;;;4986102;28;20494;-89
2023/12/01 10:27:05;;;;;;;16.58;7.40;;;2.70;99.90;;;;;;4987839;28;20041;-90
2023/12/01 10:29:34;;;;;;;13.35;6.75;;;2.70;99.90;;;;;;4989578;28;20041;-91
2023/12/01 10:32:06;;;;;;;18.65;6.90;;;2.80;99.90;;;;;;4973915;28;20038;-89
2023/12/01 10:34:32;;;;;;;16.30;6.95;;;2.90;99.90;;;;;;4989294;28;20049;-90
2023/12/01 10:36:58;;;;;;;17.35;7.07;;;3.20;99.90;;;;;;4995803;28;20482;-90
2023/12/01 10:39:25;;;;;;;13.90;7.00;;;3.00;99.90;;;;;;5006095;28;20034;-89
2023/12/01 10:41:55;;;;;;;14.60;7.20;;;3.00;99.90;;;;;;4994219;28;20026;-89
2023/12/01 10:44:28;;;;;;;15.15;6.50;;;3.00;99.90;;;;;;4989575;28;20050;-90
2023/12/01 10:46:56;;;;;;;15.52;7.32;;;3.00;99.90;;;;;;4989347;28;20034;-89
2023/12/01 10:49:23;;;;;;;13.68;7.50;;;3.10;99.90;;;;;;4990245;28;20571;-89
2023/12/01 10:51:55;;;;;;;14.57;6.83;;;3.10;99.90;;;;;;4992794;28;20053;-87
2023/12/01 10:54:24;;;;;;;17.98;7.53;;;3.00;99.90;;;;;;4983228;28;20026;-88
2023/12/01 10:56:52;;;;;;;13.10;7.00;;;3.00;99.90;;;;;;4972185;28;20113;-91
2023/12/01 10:59:19;;;;;;;17.13;7.95;;;3.00;99.90;;;;;;5005550;28;20057;-89
2023/12/01 11:01:48;;;;;;;13.45;6.78;;;2.80;99.90;;;;;;4992201;28;20574;-89
2023/12/01 11:04:23;;;;;;;16.40;7.18;;;2.70;99.90;;;;;;4994711;28;20054;-88
2023/12/01 11:06:55;;;;;;;17.33;7.55;;;2.80;99.90;;;;;;4988569;28;20022;-90
2023/12/01 11:09:36;;;;;;;12.20;5.97;;;2.90;99.90;;;;;;4990462;28;20026;-89
2023/12/01 11:12:20;;;;;;;13.45;6.70;;;2.80;99.90;;;;;;5005531;28;20031;-90
2023/12/01 11:14:51;;;;;;;14.88;6.95;;;2.70;99.90;;;;;;4988038;28;20088;-90
2023/12/01 11:17:17;;;;;;;13.77;6.25;;;2.80;99.90;;;;;;4989837;28;20073;-91
2023/12/01 11:19:43;;;;;;;13.70;7.28;;;2.70;99.90;;;;;;4989722;28;20092;-88
2023/12/01 11:22:27;;;;;;;11.10;6.25;;;2.90;99.90;;;;;;4993414;28;20621;-90
2023/12/01 11:24:53;;;;;;;14.30;6.45;;;2.50;99.90;;;;;;4987443;28;20069;-90
2023/12/01 11:27:19;;;;;;;16.23;6.43;;;2.50;99.90;;;;;;4989890;28;20113;-89
2023/12/01 11:30:12;;;;;;;12.73;6.32;;;2.60;99.90;;;;;;5005679;28;20557;-88
2023/12/01 11:32:43;;;;;;;14.13;6.43;;;2.60;99.90;;;;;;4980030;28;20516;-90
2023/12/01 11:35:13;;;;;;;11.27;5.80;;;2.50;99.90;;;;;;4986892;28;20023;-90
2023/12/01 11:38:03;;;;;;;12.82;5.53;;;2.50;99.90;;;;;;4991929;28;20019;-89
2023/12/01 11:40:39;;;;;;;11.77;5.80;;;2.50;99.90;;;;;;4993634;28;20508;-88
2023/12/01 11:43:09;;;;;;;10.10;5.75;;;2.40;99.90;;;;;;4987212;28;20029;-89
2023/12/01 11:45:42;;;;;;;13.18;5.75;;;2.50;99.90;;;;;;4991415;28;20030;-89
2023/12/01 11:48:12;;;;;;;10.95;6.10;;;2.30;99.90;;;;;;4992504;28;20081;-90
2023/12/01 11:50:41;;;;;;;11.35;5.82;;;2.30;99.90;;;;;;4994597;28;20026;-89
2023/12/01 11:53:14;;;;;;;11.10;6.38;;;2.30;99.90;;;;;;4990608;28;20062;-88
2023/12/01 11:55:41;;;;;;;12.65;6.53;;;2.50;99.90;;;;;;5007225;28;20044;-88
2023/12/01 11:58:07;;;;;;;14.73;6.82;;;2.40;99.90;;;;;;4989509;28;20039;-89
2023/12/01 12:00:34;;;;;;;13.23;6.43;;;2.50;99.90;;;;;;4994223;28;20040;-89
2023/12/01 12:03:17;;;;;;;16.00;6.95;;;2.60;99.90;;;;;;4990707;28;20057;-88
2023/12/01 12:05:45;;;;;;;9.93;5.30;;;2.50;99.90;;;;;;4991994;28;20038;-89
2023/12/01 12:08:10;;;;;;;8.75;4.68;;;2.50;99.90;;;;;;4989780;28;20186;-88
2023/12/01 12:10:36;;;;;;;10.13;4.78;;;2.50;99.90;;;;;;4990556;28;20034;-89
2023/12/01 12:13:02;;;;;;;10.48;5.18;;;2.50;99.90;;;;;;4990574;28;20030;-90
2023/12/01 12:15:30;;;;;;;9.77;5.47;;;2.60;99.90;;;;;;4991296;28;20030;-90
2023/12/01 12:17:55;;;;;;;11.82;5.63;;;2.70;99.90;;;;;;4991461;28;20030;-89
2023/12/01 12:20:24;;;;;;;11.82;5.40;;;2.70;99.90;;;;;;4992535;28;20038;-89
2023/12/01 12:22:50;;;;;;;12.73;6.10;;;2.70;99.90;;;;;;4990845;28;20046;-88
2023/12/01 12:25:15;;;;;;;12.95;5.95;;;2.70;99.90;;;;;;4975070;28;20190;-89
2023/12/01 12:27:43;;;;;;;13.80;6.55;;;2.80;99.90;;;;;;4991528;28;20046;-89
2023/12/01 12:30:09;;;;;;;11.77;5.97;;;2.70;99.90;;;;;;4989628;28;20038;-89
2023/12/01 12:32:36;;;;;;;10.07;5.53;;;2.60;99.90;;;;;;4991217;28;20038;-88
2023/12/01 12:35:01;;;;;;;13.45;5.97;;;2.70;99.90;;;;;;5007243;28;20061;-89
2023/12/01 12:37:27;;;;;;;12.60;6.15;;;2.60;99.90;;;;;;4991690;28;20062;-87
2023/12/01 12:39:54;;;;;;;11.15;5.97;;;2.60;99.90;;;;;;4973705;28;20034;-89
2023/12/01 12:42:20;;;;;;;11.25;5.90;;;2.70;99.90;;;;;;5007614;28;20034;-88
2023/12/01 12:44:48;;;;;;;11.85;6.50;;;2.60;99.90;;;;;;4991445;28;20061;-89
2023/12/01 12:47:17;;;;;;;11.68;5.82;;;2.50;99.90;;;;;;4989563;28;20027;-89